createdAt,value
2022-08-01T00:00:10.016Z,100282.09
2022-08-01T00:02:40.789Z,100283.50
2022-08-01T00:05:09.048Z,100281.06
2022-08-01T00:07:36.057Z,100280.75
2022-08-01T00:10:05.379Z,100288.03
2022-08-01T00:12:32.608Z,100285.59
2022-08-01T00:15:00.133Z,100285.28
2022-08-01T00:17:28.061Z,100287.53
2022-08-01T00:19:55.140Z,100287.19
2022-08-01T00:22:22.445Z,100284.16
2022-08-01T00:24:50.552Z,100281.44
2022-08-01T00:27:18.581Z,100283.28
2022-08-01T00:30:12.078Z,100284.88
2022-08-01T00:35:55.866Z,100286.97
2022-08-01T00:38:25.537Z,100281.84
2022-08-01T00:41:22.312Z,100290.03
2022-08-01T00:44:34.152Z,100283.78
2022-08-01T00:47:05.556Z,100288.56
2022-08-01T00:49:37.696Z,100289.28
2022-08-01T00:52:09.605Z,100292.91
2022-08-01T00:54:51.972Z,100293.19
2022-08-01T00:58:03.503Z,100294.50
2022-08-01T01:00:18.576Z,100291.28
2022-08-01T01:02:59.053Z,100290.97
2022-08-01T01:05:28.600Z,100292.09
2022-08-01T01:08:03.802Z,100287.44
2022-08-01T01:11:11.528Z,100295.00
2022-08-01T01:13:57.780Z,100289.06
2022-08-01T01:16:27.489Z,100289.84
2022-08-01T01:19:32.966Z,100293.13
2022-08-01T01:22:51.551Z,100288.94
2022-08-01T01:25:51.041Z,100287.66
2022-08-01T01:28:45.299Z,100286.25
2022-08-01T01:31:31.959Z,100282.97
2022-08-01T01:34:29.984Z,100292.78
2022-08-01T01:37:35.866Z,100290.09
2022-08-01T01:40:35.238Z,100290.28
2022-08-01T01:43:20.898Z,100294.81
2022-08-01T01:46:06.951Z,100292.94
2022-08-01T01:48:54.431Z,100291.03
2022-08-01T01:51:33.532Z,100291.88
2022-08-01T01:54:03.260Z,100287.31
2022-08-01T01:56:37.023Z,100285.63
2022-08-01T01:59:04.233Z,100294.25
2022-08-01T02:02:06.148Z,100290.72
2022-08-01T02:04:39.629Z,100289.59
2022-08-01T02:07:31.362Z,100293.38
2022-08-01T02:10:13.212Z,100293.28
2022-08-01T02:12:43.452Z,100292.97
2022-08-01T02:15:17.600Z,100292.41
2022-08-01T02:18:13.762Z,100296.75
2022-08-01T02:20:43.351Z,100300.75
2022-08-01T02:23:38.078Z,100296.66
2022-08-01T02:26:11.650Z,100305.03
2022-08-01T02:28:54.626Z,100307.50
2022-08-01T02:31:34.285Z,100305.59
2022-08-01T02:34:08.902Z,100309.81
2022-08-01T02:36:42.180Z,100323.47
2022-08-01T02:39:20.342Z,100321.84
2022-08-01T02:41:51.823Z,100314.22
2022-08-01T02:44:35.757Z,100323.09
2022-08-01T02:47:20.024Z,100323.34
2022-08-01T02:49:53.862Z,100315.72
2022-08-01T02:52:25.892Z,100328.84
2022-08-01T02:55:17.777Z,100322.03
2022-08-01T02:57:52.467Z,100330.41
2022-08-01T03:00:41.765Z,100327.94
2022-08-01T03:03:18.341Z,100330.09
2022-08-01T03:05:58.672Z,100318.44
2022-08-01T03:08:42.970Z,100328.19
2022-08-01T03:11:12.752Z,100327.63
2022-08-01T03:13:48.170Z,100333.88
2022-08-01T03:16:18.225Z,100331.47
2022-08-01T03:19:03.170Z,100334.94
2022-08-01T03:21:41.699Z,100335.44
2022-08-01T03:24:14.775Z,100344.28
2022-08-01T03:26:45.251Z,100343.00
2022-08-01T03:29:21.329Z,100346.75
2022-08-01T03:31:54.167Z,100345.94
2022-08-01T03:34:23.945Z,100347.81
2022-08-01T03:37:01.811Z,100342.66
2022-08-01T03:39:32.859Z,100344.28
2022-08-01T03:42:05.538Z,100346.19
2022-08-01T03:44:36.622Z,100353.47
2022-08-01T03:47:07.768Z,100352.97
2022-08-01T03:49:38.740Z,100357.31
2022-08-01T03:52:08.403Z,100354.97
2022-08-01T03:54:39.272Z,100356.09
2022-08-01T03:57:08.608Z,100355.47
2022-08-01T03:59:48.439Z,100357.31
2022-08-01T04:02:16.016Z,100355.94
2022-08-01T04:04:42.924Z,100350.28
2022-08-01T04:07:23.815Z,100356.75
2022-08-01T04:09:50.647Z,100358.66
2022-08-01T04:12:17.397Z,100362.50
2022-08-01T04:14:44.357Z,100365.16
2022-08-01T04:17:12.544Z,100364.66
2022-08-01T04:19:40.743Z,100363.81
2022-08-01T04:22:09.122Z,100357.03
2022-08-01T04:24:36.730Z,100363.72
2022-08-01T04:27:07.160Z,100361.38
2022-08-01T04:29:35.880Z,100370.28
2022-08-01T04:32:04.174Z,100375.78
2022-08-01T04:34:34.134Z,100384.19
2022-08-01T04:37:03.084Z,100376.13
2022-08-01T04:39:32.646Z,100372.28
2022-08-01T04:42:03.771Z,100382.63
2022-08-01T04:44:34.296Z,100384.47
2022-08-01T04:47:04.142Z,100386.13
2022-08-01T04:49:48.727Z,100402.22
2022-08-01T04:52:22.950Z,100403.03
2022-08-01T04:54:51.390Z,100408.78
2022-08-01T04:57:18.024Z,100405.50
2022-08-01T04:59:45.167Z,100410.72
2022-08-01T05:02:11.691Z,100407.81
2022-08-01T05:04:39.464Z,100404.84
2022-08-01T05:07:07.035Z,100411.00
2022-08-01T05:09:37.149Z,100407.81
2022-08-01T05:12:05.871Z,100406.81
2022-08-01T05:14:33.610Z,100411.41
2022-08-01T05:17:04.562Z,100400.56
2022-08-01T05:19:36.314Z,100407.81
2022-08-01T05:22:06.525Z,100405.91
2022-08-01T05:24:35.878Z,100410.25
2022-08-01T05:27:05.240Z,100407.75
2022-08-01T05:29:34.521Z,100398.34
2022-08-01T05:32:01.249Z,100398.19
2022-08-01T05:34:28.098Z,100393.72
2022-08-01T05:36:57.975Z,100398.41
2022-08-01T05:39:24.761Z,100390.78
2022-08-01T05:41:51.689Z,100380.09
2022-08-01T05:44:18.798Z,100371.69
2022-08-01T05:46:46.024Z,100364.34
2022-08-01T05:49:13.223Z,100359.66
2022-08-01T05:51:39.983Z,100356.50
2022-08-01T05:54:06.990Z,100357.97
2022-08-01T05:56:34.355Z,100355.25
2022-08-01T05:59:01.167Z,100355.28
2022-08-01T06:01:27.852Z,100358.47
2022-08-01T06:03:58.283Z,100357.53
2022-08-01T06:06:26.454Z,100356.16
2022-08-01T06:08:53.441Z,100352.03
2022-08-01T06:11:20.109Z,100355.03
2022-08-01T06:13:48.459Z,100350.63
2022-08-01T06:16:17.259Z,100351.88
2022-08-01T06:18:44.646Z,100358.25
2022-08-01T06:21:12.944Z,100353.84
2022-08-01T06:23:43.794Z,100361.97
2022-08-01T06:26:11.355Z,100365.81
2022-08-01T06:28:39.597Z,100369.59
2022-08-01T06:31:06.829Z,100369.13
2022-08-01T06:33:34.787Z,100365.72
2022-08-01T06:36:01.873Z,100360.47
2022-08-01T06:38:28.678Z,100369.50
2022-08-01T06:40:55.513Z,100369.31
2022-08-01T06:43:22.474Z,100366.44
2022-08-01T06:45:49.689Z,100365.03
2022-08-01T06:48:16.590Z,100374.94
2022-08-01T06:50:43.346Z,100372.47
2022-08-01T06:53:10.262Z,100380.34
2022-08-01T06:55:37.096Z,100379.94
2022-08-01T06:58:03.983Z,100380.38
2022-08-01T07:00:30.953Z,100376.81
2022-08-01T07:02:59.653Z,100376.81
2022-08-01T07:05:26.959Z,100382.69
2022-08-01T07:07:54.078Z,100382.25
2022-08-01T07:10:21.034Z,100385.66
2022-08-01T07:12:47.894Z,100382.56
2022-08-01T07:15:14.728Z,100378.34
2022-08-01T07:17:42.673Z,100372.16
2022-08-01T07:20:11.406Z,100386.78
2022-08-01T07:22:38.832Z,100377.00
2022-08-01T07:25:06.654Z,100371.00
2022-08-01T07:27:34.008Z,100357.94
2022-08-01T07:30:00.968Z,100349.22
2022-08-01T07:32:28.030Z,100346.22
2022-08-01T07:34:54.751Z,100336.31
2022-08-01T07:37:46.131Z,100336.59
2022-08-01T07:40:08.885Z,100339.22
2022-08-01T07:42:35.935Z,100345.81
2022-08-01T07:45:02.728Z,100354.78
2022-08-01T07:47:29.546Z,100358.00
2022-08-01T07:50:04.026Z,100358.25
2022-08-01T07:52:31.473Z,100366.16
2022-08-01T07:55:00.973Z,100369.63
2022-08-01T07:57:27.846Z,100371.41
2022-08-01T07:59:54.716Z,100375.72
2022-08-01T08:02:21.542Z,100371.56
2022-08-01T08:04:49.296Z,100384.53
2022-08-01T08:07:16.635Z,100379.56
2022-08-01T08:09:43.421Z,100381.31
2022-08-01T08:12:10.698Z,100388.88
2022-08-01T08:14:38.244Z,100388.19
2022-08-01T08:17:06.366Z,100377.97
2022-08-01T08:19:38.346Z,100376.56
2022-08-01T08:22:07.980Z,100375.78
2022-08-01T08:24:36.072Z,100377.09
2022-08-01T08:27:03.649Z,100379.56
2022-08-01T08:29:33.510Z,100383.22
2022-08-01T08:32:01.375Z,100383.66
2022-08-01T08:34:29.131Z,100384.31
2022-08-01T08:36:57.117Z,100389.47
2022-08-01T08:39:26.161Z,100392.47
2022-08-01T08:41:53.288Z,100394.94
2022-08-01T08:44:25.401Z,100390.09
2022-08-01T08:46:53.662Z,100388.97
2022-08-01T08:49:27.890Z,100390.78
2022-08-01T08:52:08.926Z,100388.78
2022-08-01T08:54:39.337Z,100386.44
2022-08-01T08:57:08.151Z,100389.84
2022-08-01T08:59:36.608Z,100397.59
2022-08-01T09:02:07.902Z,100400.88
2022-08-01T09:04:36.582Z,100399.22
2022-08-01T09:07:06.140Z,100400.34
2022-08-01T09:09:33.729Z,100415.31
2022-08-01T09:12:00.951Z,100405.44
2022-08-01T09:14:31.629Z,100412.59
2022-08-01T09:17:11.913Z,100410.66
2022-08-01T09:19:41.615Z,100409.91
2022-08-01T09:22:15.285Z,100419.41
2022-08-01T09:24:43.788Z,100413.34
2022-08-01T09:27:23.119Z,100427.66
2022-08-01T09:30:01.803Z,100418.25
2022-08-01T09:32:36.283Z,100422.81
2022-08-01T09:35:30.409Z,100430.81
2022-08-01T09:38:17.971Z,100434.66
2022-08-01T09:40:55.618Z,100441.19
2022-08-01T09:43:27.295Z,100445.56
2022-08-01T09:45:55.541Z,100442.59
2022-08-01T09:48:28.826Z,100448.59
2022-08-01T09:51:00.831Z,100438.34
2022-08-01T09:53:52.077Z,100434.91
2022-08-01T09:56:21.860Z,100429.75
2022-08-01T09:59:00.376Z,100428.78
2022-08-01T10:01:37.343Z,100441.03
2022-08-01T10:04:17.490Z,100439.94
2022-08-01T10:06:50.959Z,100453.03
2022-08-01T10:09:39.897Z,100454.28
2022-08-01T10:12:15.858Z,100463.00
2022-08-01T10:14:46.320Z,100458.31
2022-08-01T10:17:18.171Z,100462.94
2022-08-01T10:19:46.678Z,100467.59
2022-08-01T10:22:18.411Z,100464.09
2022-08-01T10:24:48.600Z,100465.72
2022-08-01T10:27:21.458Z,100465.72
2022-08-01T10:30:19.688Z,100468.22
2022-08-01T10:32:55.592Z,100473.63
2022-08-01T10:35:47.519Z,100475.03
2022-08-01T10:38:13.926Z,100467.13
2022-08-01T10:40:43.071Z,100473.09
2022-08-01T10:43:21.186Z,100475.00
2022-08-01T10:45:50.758Z,100471.16
2022-08-01T10:48:39.323Z,100471.16
2022-08-01T10:51:17.475Z,100462.41
2022-08-01T10:53:57.014Z,100463.50
2022-08-01T10:56:41.008Z,100451.22
2022-08-01T10:59:11.916Z,100457.25
2022-08-01T11:01:44.916Z,100458.06
2022-08-01T11:04:17.715Z,100463.88
2022-08-01T11:06:53.499Z,100457.13
2022-08-01T11:09:51.994Z,100454.28
2022-08-01T11:12:24.537Z,100451.13
2022-08-01T11:15:02.423Z,100462.03
2022-08-01T11:17:49.197Z,100451.25
2022-08-01T11:20:46.182Z,100456.06
2022-08-01T11:23:16.634Z,100458.69
2022-08-01T11:25:58.351Z,100459.38
2022-08-01T11:29:19.416Z,100471.09
2022-08-01T11:31:48.509Z,100459.13
2022-08-01T11:34:22.017Z,100460.91
2022-08-01T11:38:00.309Z,100463.91
2022-08-01T11:45:44.744Z,100471.06
2022-08-01T11:52:30.902Z,100474.31
2022-08-01T11:55:01.404Z,100482.41
2022-08-01T11:57:49.690Z,100472.44
2022-08-01T12:03:20.008Z,100476.19
2022-08-01T12:05:55.010Z,100475.16
2022-08-01T12:08:50.588Z,100471.91
2022-08-01T12:11:59.358Z,100470.38
2022-08-01T12:17:58.790Z,100483.22
2022-08-01T12:21:08.530Z,100482.19
2022-08-01T12:23:50.149Z,100487.22
2022-08-01T12:26:32.275Z,100488.03
2022-08-01T12:33:40.834Z,100497.28
2022-08-01T12:36:39.517Z,100496.13
2022-08-01T12:39:36.340Z,100500.41
2022-08-01T12:42:08.692Z,100503.50
2022-08-01T12:44:36.100Z,100499.63
2022-08-01T12:47:04.886Z,100494.84
2022-08-01T12:49:41.295Z,100501.16
2022-08-01T12:52:13.145Z,100497.38
2022-08-01T12:55:03.234Z,100495.09
2022-08-01T12:57:33.810Z,100488.63
2022-08-01T13:00:31.760Z,100488.75
2022-08-01T13:03:33.025Z,100492.97
2022-08-01T13:07:10.574Z,100485.78
2022-08-01T13:10:30.058Z,100486.94
2022-08-01T13:21:01.755Z,100484.31
2022-08-01T13:27:11.390Z,100476.66
2022-08-01T13:37:11.330Z,100483.25
2022-08-01T13:51:21.913Z,100490.78
2022-08-01T13:57:36.239Z,100482.50
2022-08-01T14:00:35.356Z,100482.19
2022-08-01T14:03:33.257Z,100484.06
2022-08-01T14:06:28.647Z,100482.44
2022-08-01T14:09:36.818Z,100480.28
2022-08-01T14:12:26.970Z,100488.53
2022-08-01T14:15:11.499Z,100487.97
2022-08-01T14:17:50.378Z,100487.66
2022-08-01T14:20:39.220Z,100490.94
2022-08-01T14:23:16.764Z,100498.25
2022-08-01T14:28:59.817Z,100499.34
2022-08-01T14:31:34.506Z,100494.25
2022-08-01T14:34:16.791Z,100495.63
2022-08-01T14:36:59.635Z,100498.66
2022-08-01T14:42:50.941Z,100502.00
2022-08-01T14:46:02.434Z,100493.13
2022-08-01T14:48:50.231Z,100498.63
2022-08-01T14:51:41.610Z,100497.88
2022-08-01T14:54:16.836Z,100494.84
2022-08-01T14:57:00.631Z,100492.88
2022-08-01T14:59:46.006Z,100491.69
2022-08-01T15:05:17.507Z,100496.91
2022-08-01T15:07:54.665Z,100485.84
2022-08-01T15:17:26.909Z,100484.66
2022-08-01T15:20:00.881Z,100484.09
2022-08-01T15:25:23.465Z,100489.66
2022-08-01T15:28:16.272Z,100478.13
2022-08-01T15:30:52.741Z,100476.56
2022-08-01T15:33:38.323Z,100484.53
2022-08-01T15:36:46.224Z,100484.94
2022-08-01T15:39:51.343Z,100484.63
2022-08-01T15:42:46.910Z,100495.63
2022-08-01T15:48:50.857Z,100504.22
2022-08-01T15:51:21.201Z,100503.31
2022-08-01T15:56:49.107Z,100499.53
2022-08-01T15:59:16.123Z,100499.78
2022-08-01T16:01:48.352Z,100501.69
2022-08-01T16:04:29.668Z,100504.75
2022-08-01T16:07:22.747Z,100493.47
2022-08-01T16:09:53.950Z,100488.81
2022-08-01T16:12:20.963Z,100493.69
2022-08-01T16:15:41.600Z,100494.72
2022-08-01T16:18:13.900Z,100508.47
2022-08-01T16:20:46.849Z,100497.56
2022-08-01T16:23:40.726Z,100495.03
2022-08-01T16:26:25.944Z,100501.16
2022-08-01T16:29:25.794Z,100495.63
2022-08-01T16:32:43.609Z,100499.69
2022-08-01T16:35:46.892Z,100499.84
2022-08-01T16:38:35.383Z,100508.03
2022-08-01T16:41:19.087Z,100495.97
2022-08-01T16:43:53.923Z,100498.25
2022-08-01T16:46:22.588Z,100501.13
2022-08-01T16:48:49.387Z,100491.63
2022-08-01T16:51:16.168Z,100497.06
2022-08-01T16:53:42.920Z,100504.69
2022-08-01T16:56:12.031Z,100505.53
2022-08-01T16:58:38.882Z,100506.09
2022-08-01T17:01:59.350Z,100504.13
2022-08-01T17:03:54.855Z,100494.81
2022-08-01T17:06:27.139Z,100495.69
2022-08-01T17:08:56.671Z,100495.16
2022-08-01T17:11:25.261Z,100496.22
2022-08-01T17:13:51.950Z,100498.16
2022-08-01T17:16:18.700Z,100498.66
2022-08-01T17:18:45.540Z,100497.91
2022-08-01T17:21:12.247Z,100504.19
2022-08-01T17:23:39.048Z,100502.28
2022-08-01T17:26:05.823Z,100508.03
2022-08-01T17:28:32.691Z,100507.19
2022-08-01T17:31:10.545Z,100508.28
2022-08-01T17:33:44.735Z,100509.03
2022-08-01T17:36:13.295Z,100502.25
2022-08-01T17:38:39.971Z,100508.81
2022-08-01T17:41:07.099Z,100509.91
2022-08-01T17:43:33.795Z,100508.81
2022-08-01T17:46:08.291Z,100515.91
2022-08-01T17:48:35.053Z,100515.34
2022-08-01T17:51:01.820Z,100511.81
2022-08-01T17:53:28.702Z,100513.97
2022-08-01T17:55:58.516Z,100517.56
2022-08-01T17:58:49.957Z,100510.44
2022-08-01T18:01:14.048Z,100517.53
2022-08-01T18:03:41.795Z,100515.31
2022-08-01T18:06:19.923Z,100516.66
2022-08-01T18:09:03.272Z,100523.63
2022-08-01T18:11:37.330Z,100515.75
2022-08-01T18:14:06.897Z,100515.72
2022-08-01T18:16:33.912Z,100513.91
2022-08-01T18:19:05.190Z,100526.84
2022-08-01T18:21:40.971Z,100526.72
2022-08-01T18:24:09.802Z,100528.34
2022-08-01T18:26:36.784Z,100526.03
2022-08-01T18:29:11.623Z,100519.50
2022-08-01T18:31:39.181Z,100518.31
2022-08-01T18:34:05.921Z,100519.53
2022-08-01T18:36:34.463Z,100528.34
2022-08-01T18:39:10.026Z,100533.44
2022-08-01T18:41:38.286Z,100533.47
2022-08-01T18:44:15.643Z,100537.59
2022-08-01T18:46:42.416Z,100545.53
2022-08-01T18:49:11.431Z,100541.22
2022-08-01T18:51:47.635Z,100551.38
2022-08-01T18:54:15.133Z,100558.31
2022-08-01T18:56:43.212Z,100562.66
2022-08-01T18:59:17.311Z,100566.50
2022-08-01T19:01:44.245Z,100568.56
2022-08-01T19:04:11.751Z,100572.50
2022-08-01T19:06:47.537Z,100576.88
2022-08-01T19:09:14.561Z,100579.50
2022-08-01T19:11:47.420Z,100578.03
2022-08-01T19:14:17.621Z,100582.13
2022-08-01T19:16:44.299Z,100582.84
2022-08-01T19:19:11.055Z,100585.66
2022-08-01T19:21:44.775Z,100588.06
2022-08-01T19:24:17.569Z,100584.84
2022-08-01T19:26:53.238Z,100588.28
2022-08-01T19:29:21.056Z,100593.97
2022-08-01T19:31:49.433Z,100601.03
2022-08-01T19:34:18.612Z,100608.34
2022-08-01T19:36:49.717Z,100609.75
2022-08-01T19:39:23.755Z,100609.16
2022-08-01T19:41:51.965Z,100613.44
2022-08-01T19:44:20.792Z,100610.38
2022-08-01T19:46:47.448Z,100608.97
2022-08-01T19:49:15.312Z,100613.00
2022-08-01T19:51:51.450Z,100610.78
2022-08-01T19:54:19.543Z,100606.09
2022-08-01T19:56:47.651Z,100611.88
2022-08-01T19:59:23.085Z,100621.94
2022-08-01T20:01:52.377Z,100616.31
2022-08-01T20:04:19.521Z,100622.22
2022-08-01T20:06:49.527Z,100626.31
2022-08-01T20:09:16.328Z,100626.00
2022-08-01T20:11:48.401Z,100619.19
2022-08-01T20:14:22.131Z,100621.16
2022-08-01T20:16:50.463Z,100625.03
2022-08-01T20:19:18.593Z,100630.09
2022-08-01T20:22:02.743Z,100628.63
2022-08-01T20:24:40.936Z,100628.63
2022-08-01T20:27:09.669Z,100623.84
2022-08-01T20:29:36.643Z,100614.88
2022-08-01T20:32:07.293Z,100610.38
2022-08-01T20:34:39.785Z,100619.38
2022-08-01T20:37:13.358Z,100617.72
2022-08-01T20:39:46.092Z,100612.84
2022-08-01T20:44:56.382Z,100623.94
2022-08-01T20:47:24.622Z,100638.59
2022-08-01T20:50:52.302Z,100639.19
2022-08-01T20:53:09.439Z,100647.91
2022-08-01T20:55:47.869Z,100650.34
2022-08-01T20:58:27.190Z,100647.41
2022-08-01T21:00:54.845Z,100660.47
2022-08-01T21:03:24.013Z,100661.28
2022-08-01T21:06:03.077Z,100662.13
2022-08-01T21:08:36.787Z,100671.81
2022-08-01T21:11:07.409Z,100667.59
2022-08-01T21:13:40.839Z,100669.00
2022-08-01T21:16:22.292Z,100678.84
2022-08-01T21:19:18.978Z,100687.16
2022-08-01T21:21:58.730Z,100684.28
2022-08-01T21:24:29.214Z,100683.03
2022-08-01T21:26:56.509Z,100683.72
2022-08-01T21:29:24.419Z,100682.16
2022-08-01T21:32:22.548Z,100683.06
2022-08-01T21:34:51.215Z,100694.41
2022-08-01T21:37:23.331Z,100681.97
2022-08-01T21:39:53.018Z,100680.84
2022-08-01T21:42:35.570Z,100674.44
2022-08-01T21:45:02.859Z,100687.19
2022-08-01T21:47:30.064Z,100679.53
2022-08-01T21:50:02.587Z,100685.16
2022-08-01T21:52:37.123Z,100679.38
2022-08-01T21:55:22.940Z,100677.59
2022-08-01T21:58:35.597Z,100677.66
2022-08-01T22:01:21.631Z,100674.97
2022-08-01T22:03:49.097Z,100674.34
2022-08-01T22:06:16.903Z,100810.13
2022-08-01T22:08:52.451Z,101295.94
2022-08-01T22:11:25.614Z,100841.72
2022-08-01T22:13:55.147Z,101463.16
2022-08-01T22:16:26.141Z,100820.84
2022-08-01T22:18:53.373Z,100803.44
2022-08-01T22:21:20.273Z,100731.72
2022-08-01T22:23:47.388Z,100724.19
2022-08-01T22:26:14.073Z,100700.91
2022-08-01T22:28:40.807Z,100694.19
2022-08-01T22:31:07.863Z,100690.13
2022-08-01T22:33:36.601Z,100694.50
2022-08-01T22:36:05.095Z,100704.91
2022-08-01T22:38:40.968Z,100696.19
2022-08-01T22:41:18.061Z,100702.66
2022-08-01T22:44:04.942Z,100698.84
2022-08-01T22:47:04.478Z,100693.88
2022-08-01T22:49:35.019Z,100699.28
2022-08-01T22:52:14.655Z,100702.88
2022-08-01T22:54:44.378Z,100708.28
2022-08-01T22:57:14.680Z,100711.19
2022-08-01T23:00:00.343Z,100708.94
2022-08-01T23:02:31.212Z,100719.34
2022-08-01T23:05:03.486Z,100720.59
2022-08-01T23:07:34.682Z,100722.06
2022-08-01T23:10:05.397Z,100717.31
2022-08-01T23:12:32.555Z,100715.88
2022-08-01T23:15:00.471Z,100714.41
2022-08-01T23:17:29.786Z,100716.28
2022-08-01T23:20:01.941Z,100720.22
2022-08-01T23:22:34.978Z,100716.44
2022-08-01T23:25:07.021Z,100711.91
2022-08-01T23:27:54.110Z,100711.91
2022-08-01T23:30:31.640Z,100710.69
2022-08-01T23:32:58.915Z,100706.38
2022-08-01T23:35:26.238Z,100705.94
2022-08-01T23:37:55.833Z,100702.44
2022-08-01T23:40:28.928Z,100703.72
2022-08-01T23:42:55.936Z,100701.44
2022-08-01T23:45:23.335Z,100704.13
2022-08-01T23:47:50.295Z,100704.53
2022-08-01T23:50:24.780Z,100702.06
2022-08-01T23:52:55.390Z,100704.72
2022-08-01T23:55:36.755Z,100704.50
2022-08-01T23:58:10.287Z,100711.53
